Lauritzen Yacht Harbor
Updated WEATHER every hour; Delta WATER and tide conditions; live TOWER CAM;
The FISHING report with PHOTOGRAPHS; harbor NEWS Items; before you get UNDERWAY ;
OTHER points of interest; WHO are we? WHAT can we provide? WHERE are we?

CRITICAL NEWS REGARING FRANKS TRACK AND LITTLE FRANKS TRACK

24 Hour Weather Archive

                   Temp   Wind   Hum   Dew   Wind                            
   Date    Time    Out   Chill   Out   Pt.  Speed    Hi    Dir   Rain   Bar  
 8/22/19  12:00a   76.8   73.3    --     --  10.0   22.0     N   0.00  29.880
 8/22/19  12:30a   76.8   73.8    --     --   9.0   24.0   NNW   0.00  29.878
 8/22/19   1:00a   76.5   73.5    --     --   9.0   25.0     N   0.00  29.872
 8/22/19   1:30a   75.9   73.3    --     --   8.0   21.0     N   0.00  29.867
 8/22/19   2:00a   75.3   72.6    --     --   8.0   21.0     N   0.00  29.863
 8/22/19   2:30a   74.9   72.2    --     --   8.0   20.0     N   0.00  29.857
 8/22/19   3:00a   74.3   73.4    --     --   5.0   13.0     W   0.00  29.856
 8/22/19   3:30a   73.3   73.3    --     --   4.0   11.0     N   0.00  29.847
 8/22/19   4:00a   73.9   73.9    --     --   4.0   12.0   WSW   0.00  29.847
 8/22/19   4:30a   72.9   72.9    --     --   4.0   10.0     N   0.00  29.844
 8/22/19   5:00a   72.9   71.9    --     --   5.0   11.0     N   0.00  29.843
 8/22/19   5:30a   71.6   70.5    --     --   5.0   10.0     N   0.00  29.850
 8/22/19   6:00a   71.4   71.4    --     --   3.0    7.0     W   0.00  29.846
 8/22/19   6:30a   70.9   69.8    --     --   5.0    9.0     N   0.00  29.849
 8/22/19   7:00a   70.5   68.6    --     --   6.0   15.0     N   0.00  29.859
 8/22/19   7:30a   71.3   69.5    --     --   6.0   12.0     N   0.00  29.867
 8/22/19   8:00a   72.3   71.3    --     --   5.0   11.0     N   0.00  29.877
 8/22/19   8:30a   73.4   71.7    --     --   6.0   12.0     N   0.00  29.875
 8/22/19   9:00a   75.8   74.9    --     --   5.0   11.0     N   0.00  29.885
 8/22/19   9:30a   77.9   77.2    --     --   5.0   12.0     N   0.00  29.885
 8/22/19  10:00a   79.4   78.7    --     --   5.0   11.0     N   0.00  29.885
 8/22/19  10:30a   81.8   81.8    --     --   4.0    9.0     N   0.00  29.884
 8/22/19  11:00a   83.4   83.4    --     --   4.0   10.0     N   0.00  29.882
 8/22/19  11:30a   83.5   83.1    --     --   5.0   11.0     N   0.00  29.883
 8/22/19  12:00p   85.1   85.1    --     --   4.0   11.0     N   0.00  29.874
 8/22/19  12:30p   87.2   87.2    --     --   4.0   10.0     N   0.00  29.865
 8/22/19   1:00p   88.4   88.2    --     --   5.0   12.0     N   0.00  29.858
 8/22/19   1:30p   89.9   89.8    --     --   5.0   12.0     N   0.00  29.845
 8/22/19   2:00p   90.4   90.3    --     --   6.0   11.0     N   0.00  29.829
 8/22/19   2:30p   91.4   91.4    --     --   5.0   10.0     N   0.00  29.819
 8/22/19   3:00p   93.4   93.4    --     --   5.0   12.0     N   0.00  29.803
 8/22/19   3:30p   93.8   93.8    --     --   5.0   12.0     N   0.00  29.785
 8/22/19   4:00p   95.3   95.3    --     --   5.0   12.0     N   0.00  29.777
 8/22/19   4:30p   97.0   97.0    --     --   4.0    9.0    NW   0.00  29.771
 8/22/19   5:00p   97.7   97.7    --     --   4.0    9.0    NW   0.00  29.768
 8/22/19   5:30p   96.7   96.7    --     --   4.0   10.0    NW   0.00  29.758
 8/22/19   6:00p   95.7   95.7    --     --   4.0    9.0     N   0.00  29.757
 8/22/19   6:30p   93.1   93.1    --     --   5.0   12.0    NW   0.00  29.753
 8/22/19   7:00p   90.4   90.3    --     --   5.0   10.0    NW   0.00  29.752
 8/22/19   7:30p   86.6   86.2    --     --   6.0   11.0    NW   0.00  29.752
 8/22/19   8:00p   83.0   81.9    --     --   7.0   15.0     N   0.00  29.758
 8/22/19   8:30p   80.1   80.1    --     --   4.0   10.0     N   0.00  29.761
 8/22/19   9:00p   77.9   77.2    --     --   5.0   10.0     N   0.00  29.769
 8/22/19   9:30p   76.8   76.0    --     --   5.0   12.0     N   0.00  29.773
 8/22/19  10:00p   75.6   74.1    --     --   6.0   12.0     N   0.00  29.785
 8/22/19  10:30p   74.4   72.8    --     --   6.0   11.0     N   0.00  29.781
 8/22/19  11:00p   73.2   73.2    --     --   4.0   10.0     N   0.00  29.775
 8/22/19  11:30p   72.1   72.1    --     --   2.0    6.0     W   0.00  29.785
 8/22/19  12:00p   71.6   71.6    --     --   2.0    6.0   WSW   0.00  29.782
 8/23/19  12:00a   71.6   71.6    --     --   2.0    6.0   WSW   0.00  29.782
 8/23/19  12:30a   71.0   71.0    --     --   2.0    6.0     N   0.00  29.775
 8/23/19   1:00a   70.6   70.6    --     --   4.0    9.0     N   0.00  29.777
 8/23/19   1:30a   70.0   70.0    --     --   4.0    9.0     N   0.00  29.774
 8/23/19   2:00a   69.2   68.0    --     --   5.0   12.0     N   0.00  29.773
 8/23/19   2:30a   68.5   66.4    --     --   6.0   12.0     N   0.00  29.768
 8/23/19   3:00a   68.0   66.7    --     --   5.0   13.0     N   0.00  29.770
 8/23/19   3:30a   67.5   67.5    --     --   3.0   10.0     N   0.00  29.781
 8/23/19   4:00a   66.7   66.7    --     --   3.0    7.0     N   0.00  29.779
 8/23/19   4:30a   66.7   66.7    --     --   4.0    8.0     N   0.00  29.782
 8/23/19   5:00a   66.1   66.1    --     --   4.0    8.0     N   0.00  29.791
 8/23/19   5:30a   65.2   65.2    --     --   3.0    8.0     N   0.00  29.798
 8/23/19   6:00a   65.1   65.1    --     --   3.0    8.0     N   0.00  29.800
 8/23/19   6:30a   65.0   65.0    --     --   3.0    9.0     N   0.00  29.808
 8/23/19   7:00a   65.2   65.2    --     --   3.0   10.0     N   0.00  29.819
 8/23/19   7:30a   67.0   67.0    --     --   3.0    6.0   WNW   0.00  29.832
 8/23/19   8:00a   68.7   68.7    --     --   3.0    8.0     N   0.00  29.837
 8/23/19   8:30a   70.3   70.3    --     --   4.0    9.0     N   0.00  29.845
 8/23/19   9:00a   71.7   70.6    --     --   5.0   11.0     N   0.00  29.851
 8/23/19   9:30a   73.4   72.4    --     --   5.0   11.0     N   0.00  29.860


Send questions or comments to:
Some of the material in this website is copyrighted © by Lauritzen Yacht Harbor and may not be used by others without our specific permission.
All rights are reserved. iPhone friendly. Viewed best with Mozilla Firefox